createdAt,value
2018-08-03T00:00:14.940Z,1015.60
2018-08-03T00:01:14.871Z,1015.58
2018-08-03T00:02:14.804Z,1015.64
2018-08-03T00:03:14.737Z,1015.62
2018-08-03T00:04:14.670Z,1015.63
2018-08-03T00:05:14.602Z,1015.61
2018-08-03T00:06:14.537Z,1015.61
2018-08-03T00:07:14.467Z,1015.61
2018-08-03T00:08:14.400Z,1015.60
2018-08-03T00:09:14.333Z,1015.61
2018-08-03T00:10:14.266Z,1015.61
2018-08-03T00:11:14.198Z,1015.58
2018-08-03T00:12:14.130Z,1015.58
2018-08-03T00:13:14.062Z,1015.60
2018-08-03T00:14:13.993Z,1015.61
2018-08-03T00:15:13.929Z,1015.63
2018-08-03T00:16:13.860Z,1015.59
2018-08-03T00:17:13.791Z,1015.59
2018-08-03T00:18:13.726Z,1015.59
2018-08-03T00:19:13.658Z,1015.58
2018-08-03T00:20:13.592Z,1015.59
2018-08-03T00:21:13.521Z,1015.59
2018-08-03T00:22:13.456Z,1015.57
2018-08-03T00:23:13.385Z,1015.53
2018-08-03T00:24:13.322Z,1015.55
2018-08-03T00:25:13.252Z,1015.52
2018-08-03T00:26:13.184Z,1015.53
2018-08-03T00:27:13.117Z,1015.53
2018-08-03T00:28:13.056Z,1015.55
2018-08-03T00:29:12.977Z,1015.52
2018-08-03T00:30:12.915Z,1015.54
2018-08-03T00:31:12.845Z,1015.54
2018-08-03T00:32:12.814Z,1015.58
2018-08-03T00:33:12.710Z,1015.54
2018-08-03T00:34:12.652Z,1015.55
2018-08-03T00:35:12.578Z,1015.56
2018-08-03T00:36:12.505Z,1015.57
2018-08-03T00:37:12.437Z,1015.54
2018-08-03T00:38:12.373Z,1015.51
2018-08-03T00:39:12.314Z,1015.50
2018-08-03T00:40:12.235Z,1015.54
2018-08-03T00:41:12.164Z,1015.55
2018-08-03T00:42:12.108Z,1015.53
2018-08-03T00:43:12.034Z,1015.54
2018-08-03T00:44:11.962Z,1015.52
2018-08-03T00:45:11.895Z,1015.54
2018-08-03T00:46:11.842Z,1015.55
2018-08-03T00:47:11.759Z,1015.55
2018-08-03T00:48:11.691Z,1015.56
2018-08-03T00:49:11.620Z,1015.57
2018-08-03T00:50:11.557Z,1015.53
2018-08-03T00:51:11.487Z,1015.56
2018-08-03T00:52:11.418Z,1015.57
2018-08-03T00:53:11.349Z,1015.51
2018-08-03T00:54:11.282Z,1015.53
2018-08-03T00:55:11.215Z,1015.55
2018-08-03T00:56:11.159Z,1015.56
2018-08-03T00:57:11.077Z,1015.52
2018-08-03T00:58:11.010Z,1015.56
2018-08-03T00:59:10.945Z,1015.60
2018-08-03T01:00:10.874Z,1015.60
2018-08-03T01:01:10.804Z,1015.58
2018-08-03T01:02:10.735Z,1015.58
2018-08-03T01:03:10.672Z,1015.58
2018-08-03T01:04:10.601Z,1015.60
2018-08-03T01:05:10.538Z,1015.54
2018-08-03T01:06:10.463Z,1015.60
2018-08-03T01:07:10.394Z,1015.60
2018-08-03T01:08:10.327Z,1015.60
2018-08-03T01:09:10.261Z,1015.59
2018-08-03T01:10:10.191Z,1015.67
2018-08-03T01:11:10.121Z,1015.67
2018-08-03T01:12:10.055Z,1015.70
2018-08-03T01:13:09.985Z,1015.67
2018-08-03T01:14:09.915Z,1015.67
2018-08-03T01:15:09.848Z,1015.67
2018-08-03T01:16:09.781Z,1015.65
2018-08-03T01:17:09.711Z,1015.69
2018-08-03T01:18:09.643Z,1015.65
2018-08-03T01:19:09.574Z,1015.64
2018-08-03T01:20:09.509Z,1015.68
2018-08-03T01:21:09.438Z,1015.67
2018-08-03T01:22:09.370Z,1015.65
2018-08-03T01:23:09.300Z,1015.64
2018-08-03T01:24:09.230Z,1015.65
2018-08-03T01:25:09.168Z,1015.67
2018-08-03T01:26:09.092Z,1015.66
2018-08-03T01:27:09.028Z,1015.67
2018-08-03T01:28:08.959Z,1015.64
2018-08-03T01:29:08.888Z,1015.65
2018-08-03T01:30:08.822Z,1015.67
2018-08-03T01:31:08.751Z,1015.65
2018-08-03T01:32:08.683Z,1015.62
2018-08-03T01:33:08.616Z,1015.59
2018-08-03T01:34:08.549Z,1015.58
2018-08-03T01:35:08.477Z,1015.54
2018-08-03T01:36:08.410Z,1015.57
2018-08-03T01:37:08.336Z,1015.59
2018-08-03T01:38:08.274Z,1015.54
2018-08-03T01:39:08.205Z,1015.60
2018-08-03T01:40:08.136Z,1015.57
2018-08-03T01:41:08.066Z,1015.55
2018-08-03T01:42:08.000Z,1015.60
2018-08-03T01:43:07.929Z,1015.56
2018-08-03T01:44:07.862Z,1015.61
2018-08-03T01:45:07.792Z,1015.60
2018-08-03T01:46:07.724Z,1015.59
2018-08-03T01:47:07.657Z,1015.58
2018-08-03T01:48:07.587Z,1015.56
2018-08-03T01:49:07.517Z,1015.56
2018-08-03T01:50:07.452Z,1015.51
2018-08-03T01:51:07.378Z,1015.56
2018-08-03T01:52:07.315Z,1015.53
2018-08-03T01:53:07.241Z,1015.58
2018-08-03T01:54:07.173Z,1015.54
2018-08-03T01:55:07.105Z,1015.52
2018-08-03T01:56:07.036Z,1015.55
2018-08-03T01:57:06.973Z,1015.56
2018-08-03T01:58:06.897Z,1015.56
2018-08-03T01:59:06.832Z,1015.54
2018-08-03T02:00:06.765Z,1015.51
2018-08-03T02:01:06.692Z,1015.53
2018-08-03T02:02:06.625Z,1015.53
2018-08-03T02:03:06.556Z,1015.52
2018-08-03T02:04:06.485Z,1015.56
2018-08-03T02:05:06.417Z,1015.52
2018-08-03T02:06:06.348Z,1015.52
2018-08-03T02:07:06.281Z,1015.53
2018-08-03T02:08:06.209Z,1015.52
2018-08-03T02:09:06.151Z,1015.56
2018-08-03T02:10:06.071Z,1015.54
2018-08-03T02:11:06.003Z,1015.57
2018-08-03T02:12:05.934Z,1015.54
2018-08-03T02:13:05.865Z,1015.54
2018-08-03T02:14:05.800Z,1015.53
2018-08-03T02:15:05.728Z,1015.54
2018-08-03T02:16:05.657Z,1015.53
2018-08-03T02:17:05.590Z,1015.57
2018-08-03T02:18:05.524Z,1015.50
2018-08-03T02:19:05.453Z,1015.49
2018-08-03T02:20:05.385Z,1015.51
2018-08-03T02:21:05.313Z,1015.50
2018-08-03T02:22:05.249Z,1015.55
2018-08-03T02:23:05.176Z,1015.52
2018-08-03T02:24:05.108Z,1015.49
2018-08-03T02:25:05.039Z,1015.48
2018-08-03T02:26:04.974Z,1015.47
2018-08-03T02:27:04.900Z,1015.48
2018-08-03T02:28:04.837Z,1015.47
2018-08-03T02:29:04.760Z,1015.47
2018-08-03T02:30:04.701Z,1015.48
2018-08-03T02:31:04.626Z,1015.46
2018-08-03T02:32:04.555Z,1015.46
2018-08-03T02:33:04.487Z,1015.47
2018-08-03T02:34:04.416Z,1015.52
2018-08-03T02:35:04.348Z,1015.51
2018-08-03T02:36:04.288Z,1015.51
2018-08-03T02:37:04.219Z,1015.50
2018-08-03T02:38:04.182Z,1015.52
2018-08-03T02:39:04.075Z,1015.51
2018-08-03T02:40:04.002Z,1015.51
2018-08-03T02:41:03.934Z,1015.52
2018-08-03T02:42:03.864Z,1015.52
2018-08-03T02:43:03.797Z,1015.51
2018-08-03T02:44:03.726Z,1015.54
2018-08-03T02:45:03.658Z,1015.48
2018-08-03T02:46:03.590Z,1015.53
2018-08-03T02:47:03.520Z,1015.55
2018-08-03T02:48:03.450Z,1015.55
2018-08-03T02:49:03.384Z,1015.54
2018-08-03T02:50:03.308Z,1015.59
2018-08-03T02:51:03.243Z,1015.57
2018-08-03T02:52:03.175Z,1015.61
2018-08-03T02:53:03.112Z,1015.62
2018-08-03T02:54:03.035Z,1015.63
2018-08-03T02:55:02.967Z,1015.62
2018-08-03T02:56:02.900Z,1015.61
2018-08-03T02:57:02.830Z,1015.63
2018-08-03T02:58:02.759Z,1015.63
2018-08-03T02:59:02.690Z,1015.60
2018-08-03T03:00:02.621Z,1015.61
2018-08-03T03:01:02.551Z,1015.61
2018-08-03T03:02:02.490Z,1015.63
2018-08-03T03:03:02.417Z,1015.59
2018-08-03T03:04:02.344Z,1015.57
2018-08-03T03:05:02.273Z,1015.53
2018-08-03T03:06:02.205Z,1015.55
2018-08-03T03:07:02.138Z,1015.60
2018-08-03T03:08:02.067Z,1015.60
2018-08-03T03:09:01.998Z,1015.61
2018-08-03T03:10:01.929Z,1015.64
2018-08-03T03:11:01.862Z,1015.63
2018-08-03T03:12:01.793Z,1015.63
2018-08-03T03:13:01.723Z,1015.68
2018-08-03T03:14:01.659Z,1015.65
2018-08-03T03:15:01.581Z,1015.66
2018-08-03T03:16:01.513Z,1015.68
2018-08-03T03:17:01.444Z,1015.66
2018-08-03T03:18:01.377Z,1015.70
2018-08-03T03:19:01.304Z,1015.67
2018-08-03T03:20:01.241Z,1015.70
2018-08-03T03:21:01.169Z,1015.67
2018-08-03T03:22:01.098Z,1015.71
2018-08-03T03:23:01.026Z,1015.71
2018-08-03T03:24:00.964Z,1015.70
2018-08-03T03:25:00.888Z,1015.70
2018-08-03T03:26:00.819Z,1015.75
2018-08-03T03:27:00.749Z,1015.70
2018-08-03T03:28:00.682Z,1015.72
2018-08-03T03:29:00.612Z,1015.74
2018-08-03T03:30:00.544Z,1015.67
2018-08-03T03:31:00.473Z,1015.67
2018-08-03T03:32:00.411Z,1015.67
2018-08-03T03:33:00.336Z,1015.68
2018-08-03T03:34:00.268Z,1015.67
2018-08-03T03:35:00.196Z,1015.66
2018-08-03T03:36:00.124Z,1015.67
2018-08-03T03:37:00.056Z,1015.67
2018-08-03T03:37:59.987Z,1015.64
2018-08-03T03:38:59.918Z,1015.68
2018-08-03T03:39:59.849Z,1015.66
2018-08-03T03:40:59.778Z,1015.64
2018-08-03T03:41:59.710Z,1015.63
2018-08-03T03:42:59.644Z,1015.70
2018-08-03T03:43:59.577Z,1015.70
2018-08-03T03:44:59.502Z,1015.74
2018-08-03T03:45:59.430Z,1015.76
2018-08-03T03:46:59.363Z,1015.73
2018-08-03T03:47:59.294Z,1015.79
2018-08-03T03:48:59.223Z,1015.76
2018-08-03T03:49:59.158Z,1015.78
2018-08-03T03:50:59.151Z,1015.81
2018-08-03T03:51:59.021Z,1015.77
2018-08-03T03:52:58.951Z,1015.80
2018-08-03T03:53:58.876Z,1015.79
2018-08-03T03:54:58.808Z,1015.74
2018-08-03T03:55:58.738Z,1015.78
2018-08-03T03:56:58.668Z,1015.80
2018-08-03T03:57:58.597Z,1015.74
2018-08-03T03:58:58.530Z,1015.71
2018-08-03T03:59:58.460Z,1015.74
2018-08-03T04:00:58.389Z,1015.73
2018-08-03T04:01:58.319Z,1015.72
2018-08-03T04:02:58.250Z,1015.71
2018-08-03T04:03:58.223Z,1015.73
2018-08-03T04:04:58.113Z,1015.71
2018-08-03T04:05:58.042Z,1015.73
2018-08-03T04:06:57.971Z,1015.70
2018-08-03T04:07:57.907Z,1015.71
2018-08-03T04:08:57.834Z,1015.74
2018-08-03T04:09:57.765Z,1015.71
2018-08-03T04:10:57.744Z,1015.75
2018-08-03T04:11:57.625Z,1015.68
2018-08-03T04:12:57.556Z,1015.67
2018-08-03T04:13:57.486Z,1015.69
2018-08-03T04:14:57.419Z,1015.68
2018-08-03T04:15:57.347Z,1015.70
2018-08-03T04:16:57.280Z,1015.70
2018-08-03T04:17:57.219Z,1015.69
2018-08-03T04:18:57.139Z,1015.66
2018-08-03T04:19:57.071Z,1015.64
2018-08-03T04:20:57.002Z,1015.69
2018-08-03T04:21:56.944Z,1015.67
2018-08-03T04:22:56.861Z,1015.70
2018-08-03T04:23:56.791Z,1015.75
2018-08-03T04:24:56.722Z,1015.70
2018-08-03T04:25:56.653Z,1015.72
2018-08-03T04:26:56.583Z,1015.69
2018-08-03T04:27:56.517Z,1015.75
2018-08-03T04:28:56.445Z,1015.69
2018-08-03T04:29:56.374Z,1015.69
2018-08-03T04:30:56.304Z,1015.74
2018-08-03T04:31:56.243Z,1015.68
2018-08-03T04:32:56.166Z,1015.70
2018-08-03T04:33:56.097Z,1015.73
2018-08-03T04:34:56.028Z,1015.72
2018-08-03T04:35:55.966Z,1015.73
2018-08-03T04:36:55.887Z,1015.71
2018-08-03T04:37:55.816Z,1015.71
2018-08-03T04:38:55.806Z,1015.78
2018-08-03T04:39:55.679Z,1015.74
2018-08-03T04:40:55.609Z,1015.70
2018-08-03T04:41:55.539Z,1015.75
2018-08-03T04:42:55.471Z,1015.73
2018-08-03T04:43:55.403Z,1015.71
2018-08-03T04:44:55.334Z,1015.74
2018-08-03T04:45:55.262Z,1015.73
2018-08-03T04:46:55.190Z,1015.75
2018-08-03T04:47:55.126Z,1015.70
2018-08-03T04:48:55.053Z,1015.65
2018-08-03T04:49:54.980Z,1015.72
2018-08-03T04:50:54.914Z,1015.71
2018-08-03T04:51:54.844Z,1015.70
2018-08-03T04:52:54.773Z,1015.73
2018-08-03T04:53:54.700Z,1015.76
2018-08-03T04:54:54.633Z,1015.81
2018-08-03T04:55:54.566Z,1015.76
2018-08-03T04:56:54.499Z,1015.77
2018-08-03T04:57:54.427Z,1015.76
2018-08-03T04:58:54.360Z,1015.78
2018-08-03T04:59:54.288Z,1015.80
2018-08-03T05:00:54.221Z,1015.83
2018-08-03T05:01:54.151Z,1015.79
2018-08-03T05:02:54.079Z,1015.79
2018-08-03T05:03:54.011Z,1015.82
2018-08-03T05:04:53.941Z,1015.86
2018-08-03T05:05:53.865Z,1015.87
2018-08-03T05:06:53.810Z,1015.81
2018-08-03T05:07:53.734Z,1015.82
2018-08-03T05:08:53.663Z,1015.87
2018-08-03T05:09:53.588Z,1015.84
2018-08-03T05:10:53.526Z,1015.85
2018-08-03T05:11:53.448Z,1015.85
2018-08-03T05:12:53.385Z,1015.88
2018-08-03T05:13:53.319Z,1015.85
2018-08-03T05:14:53.246Z,1015.90
2018-08-03T05:15:53.177Z,1015.86
2018-08-03T05:16:53.108Z,1015.91
2018-08-03T05:17:53.039Z,1015.95
2018-08-03T05:18:52.968Z,1015.91
2018-08-03T05:19:52.898Z,1015.93
2018-08-03T05:20:52.828Z,1015.92
2018-08-03T05:21:52.760Z,1015.92
2018-08-03T05:22:52.690Z,1015.90
2018-08-03T05:23:52.621Z,1015.89
2018-08-03T05:24:52.551Z,1015.93
2018-08-03T05:25:52.484Z,1015.91
2018-08-03T05:26:52.413Z,1015.91
2018-08-03T05:27:52.347Z,1015.95
2018-08-03T05:28:52.273Z,1015.90
2018-08-03T05:29:52.204Z,1015.91
2018-08-03T05:30:52.135Z,1015.90
2018-08-03T05:31:52.071Z,1015.91
2018-08-03T05:32:52.003Z,1015.91
2018-08-03T05:33:51.929Z,1015.89
2018-08-03T05:34:51.863Z,1015.88
2018-08-03T05:35:51.831Z,1015.92
2018-08-03T05:36:51.722Z,1015.93
2018-08-03T05:37:51.653Z,1015.94
2018-08-03T05:38:51.580Z,1015.93
2018-08-03T05:39:51.510Z,1015.90
2018-08-03T05:40:51.441Z,1015.90
2018-08-03T05:41:51.373Z,1015.85
2018-08-03T05:42:51.303Z,1015.89
2018-08-03T05:43:51.235Z,1015.88
2018-08-03T05:44:51.174Z,1015.91
2018-08-03T05:45:51.096Z,1015.89
2018-08-03T05:46:51.028Z,1015.87
2018-08-03T05:47:50.955Z,1015.84
2018-08-03T05:48:50.889Z,1015.88
2018-08-03T05:49:50.819Z,1015.87
2018-08-03T05:50:50.755Z,1015.87
2018-08-03T05:51:50.682Z,1015.87
2018-08-03T05:52:50.614Z,1015.90
2018-08-03T05:53:50.547Z,1015.94
2018-08-03T05:54:50.476Z,1015.94
2018-08-03T05:55:50.406Z,1015.92
2018-08-03T05:56:50.339Z,1015.96
2018-08-03T05:57:50.271Z,1016.00
2018-08-03T05:58:50.199Z,1015.95
2018-08-03T05:59:50.130Z,1015.97
2018-08-03T06:00:50.062Z,1015.97
2018-08-03T06:01:49.992Z,1015.96
2018-08-03T06:02:49.924Z,1015.95
2018-08-03T06:03:49.861Z,1015.96
2018-08-03T06:04:49.785Z,1015.98
2018-08-03T06:05:49.719Z,1015.94
2018-08-03T06:06:49.647Z,1015.91
2018-08-03T06:07:49.582Z,1015.94
2018-08-03T06:08:49.514Z,1015.97
2018-08-03T06:09:49.445Z,1015.96
2018-08-03T06:10:49.375Z,1015.97
2018-08-03T06:11:49.311Z,1015.95
2018-08-03T06:12:49.238Z,1016.00
2018-08-03T06:13:49.175Z,1016.00
2018-08-03T06:14:49.128Z,1016.00
2018-08-03T06:15:49.032Z,1016.00
2018-08-03T06:16:48.962Z,1015.95
2018-08-03T06:17:48.896Z,1015.97
2018-08-03T06:18:48.827Z,1016.00
2018-08-03T06:19:48.759Z,1015.98
2018-08-03T06:20:48.690Z,1016.02
2018-08-03T06:21:48.620Z,1016.05
2018-08-03T06:22:48.554Z,1016.08
2018-08-03T06:23:48.486Z,1016.04
2018-08-03T06:24:48.421Z,1016.08
2018-08-03T06:25:48.349Z,1016.10
2018-08-03T06:26:48.279Z,1016.05
2018-08-03T06:27:48.212Z,1016.06
2018-08-03T06:28:48.142Z,1016.08
2018-08-03T06:29:48.167Z,1016.06
2018-08-03T06:30:48.006Z,1016.05
2018-08-03T06:31:47.941Z,1016.02
2018-08-03T06:32:47.882Z,1016.07
2018-08-03T06:33:47.846Z,1016.03
2018-08-03T06:34:47.755Z,1016.05
2018-08-03T06:35:47.666Z,1016.05
2018-08-03T06:36:47.598Z,1016.09
2018-08-03T06:37:47.526Z,1016.06
2018-08-03T06:38:47.458Z,1016.07
2018-08-03T06:39:47.396Z,1016.08
2018-08-03T06:40:47.325Z,1016.10
2018-08-03T06:41:47.255Z,1016.08
2018-08-03T06:42:47.188Z,1016.12
2018-08-03T06:43:47.123Z,1016.07
2018-08-03T06:44:47.051Z,1016.04
2018-08-03T06:45:46.984Z,1016.06
2018-08-03T06:46:46.918Z,1016.07
2018-08-03T06:47:46.849Z,1016.10
2018-08-03T06:48:46.777Z,1016.16
2018-08-03T06:49:46.711Z,1016.16
2018-08-03T06:50:46.643Z,1016.14
2018-08-03T06:51:46.574Z,1016.14
2018-08-03T06:52:46.510Z,1016.18
2018-08-03T06:53:46.449Z,1016.13
2018-08-03T06:54:46.370Z,1016.13
2018-08-03T06:55:46.317Z,1016.13
2018-08-03T06:56:46.237Z,1016.14
2018-08-03T06:57:46.168Z,1016.15
2018-08-03T06:58:46.099Z,1016.15
2018-08-03T06:59:46.033Z,1016.11
2018-08-03T07:00:45.985Z,1016.13
2018-08-03T07:01:45.929Z,1016.14
2018-08-03T07:02:45.836Z,1016.15
2018-08-03T07:03:45.760Z,1016.12
2018-08-03T07:04:45.694Z,1016.13
2018-08-03T07:05:45.625Z,1016.11
2018-08-03T07:06:45.557Z,1016.14
2018-08-03T07:07:45.488Z,1016.11
2018-08-03T07:08:45.428Z,1016.13
2018-08-03T07:09:45.395Z,1016.12
2018-08-03T07:10:45.287Z,1016.08
2018-08-03T07:11:45.222Z,1016.09
2018-08-03T07:12:45.155Z,1016.13
2018-08-03T07:13:45.088Z,1016.07
2018-08-03T07:14:45.041Z,1016.09
2018-08-03T07:15:44.949Z,1016.09
2018-08-03T07:16:44.883Z,1016.11
2018-08-03T07:17:44.813Z,1016.08
2018-08-03T07:18:44.746Z,1016.08
2018-08-03T07:19:44.676Z,1016.07
2018-08-03T07:20:44.687Z,1016.05
2018-08-03T07:21:44.544Z,1016.01
2018-08-03T07:22:44.532Z,1016.04
2018-08-03T07:23:44.410Z,1016.00
2018-08-03T07:24:44.341Z,1016.04
2018-08-03T07:25:44.274Z,1016.06
2018-08-03T07:26:44.206Z,1016.05
2018-08-03T07:27:44.140Z,1016.05
2018-08-03T07:28:44.073Z,1016.07
2018-08-03T07:29:44.004Z,1016.07
2018-08-03T07:30:43.940Z,1016.06
2018-08-03T07:31:43.947Z,1016.04
2018-08-03T07:32:43.804Z,1016.06
2018-08-03T07:33:43.745Z,1016.03
2018-08-03T07:34:43.670Z,1016.08
2018-08-03T07:35:43.601Z,1016.10
2018-08-03T07:36:43.534Z,1016.06
2018-08-03T07:37:43.467Z,1016.08
2018-08-03T07:38:43.399Z,1016.04
2018-08-03T07:39:43.339Z,1016.06
2018-08-03T07:40:43.265Z,1016.08
2018-08-03T07:41:43.197Z,1016.12
2018-08-03T07:42:43.134Z,1016.09
2018-08-03T07:43:43.066Z,1016.10
2018-08-03T07:44:43.020Z,1016.10
2018-08-03T07:45:42.931Z,1016.13
2018-08-03T07:46:42.865Z,1016.13
2018-08-03T07:47:42.797Z,1016.14
2018-08-03T07:48:42.730Z,1016.09
2018-08-03T07:49:42.663Z,1016.13
2018-08-03T07:50:42.598Z,1016.10
2018-08-03T07:51:42.531Z,1016.08
2018-08-03T07:52:42.465Z,1016.08
2018-08-03T07:53:42.396Z,1016.06
2018-08-03T07:54:42.332Z,1016.08
2018-08-03T07:55:42.265Z,1016.11
2018-08-03T07:56:42.200Z,1016.05
2018-08-03T07:57:42.129Z,1016.04
2018-08-03T07:58:42.062Z,1016.03
2018-08-03T07:59:41.996Z,1016.05
2018-08-03T08:00:41.931Z,1015.99
2018-08-03T08:01:41.863Z,1015.98
2018-08-03T08:02:41.812Z,1016.00
2018-08-03T08:03:41.727Z,1015.95
2018-08-03T08:04:41.662Z,1015.97
2018-08-03T08:05:41.607Z,1015.99
2018-08-03T08:06:41.528Z,1015.93
2018-08-03T08:07:41.466Z,1016.01
2018-08-03T08:08:41.397Z,1016.00
2018-08-03T08:09:41.360Z,1015.98
2018-08-03T08:10:41.271Z,1015.96
2018-08-03T08:11:41.200Z,1015.99
2018-08-03T08:12:41.133Z,1015.97
2018-08-03T08:13:41.070Z,1015.95
2018-08-03T08:14:41.005Z,1015.94
2018-08-03T08:15:40.977Z,1015.92
2018-08-03T08:16:40.880Z,1015.94
2018-08-03T08:17:40.806Z,1015.88
2018-08-03T08:18:40.736Z,1015.86
2018-08-03T08:19:40.669Z,1015.90
2018-08-03T08:20:40.606Z,1015.92
2018-08-03T08:21:40.551Z,1015.91
2018-08-03T08:22:40.476Z,1015.91
2018-08-03T08:23:40.405Z,1015.88
2018-08-03T08:24:40.339Z,1015.88
2018-08-03T08:25:40.274Z,1015.86
2018-08-03T08:26:40.207Z,1015.87
2018-08-03T08:27:40.145Z,1015.87
2018-08-03T08:28:40.077Z,1015.90
2018-08-03T08:29:40.012Z,1015.88
2018-08-03T08:30:39.950Z,1015.89
2018-08-03T08:31:39.959Z,1015.89
2018-08-03T08:32:39.816Z,1015.86
2018-08-03T08:33:39.749Z,1015.88
2018-08-03T08:34:39.678Z,1015.84
2018-08-03T08:35:39.617Z,1015.87
2018-08-03T08:36:39.551Z,1015.85
2018-08-03T08:37:39.487Z,1015.83
2018-08-03T08:38:39.418Z,1015.79
2018-08-03T08:39:39.355Z,1015.79
2018-08-03T08:40:39.293Z,1015.78
2018-08-03T08:41:39.224Z,1015.78
2018-08-03T08:42:39.161Z,1015.80
2018-08-03T08:43:39.179Z,1015.78
2018-08-03T08:44:39.031Z,1015.78
2018-08-03T08:45:38.963Z,1015.77
2018-08-03T08:46:38.899Z,1015.76
2018-08-03T08:47:38.835Z,1015.75
2018-08-03T08:48:38.766Z,1015.75
2018-08-03T08:49:38.702Z,1015.71
2018-08-03T08:50:38.634Z,1015.74
2018-08-03T08:51:38.574Z,1015.75
2018-08-03T08:52:38.508Z,1015.70
2018-08-03T08:53:38.445Z,1015.69
2018-08-03T08:54:38.382Z,1015.71
2018-08-03T08:55:38.313Z,1015.67
2018-08-03T08:56:38.249Z,1015.64
2018-08-03T08:57:38.184Z,1015.64
2018-08-03T08:58:38.121Z,1015.57
2018-08-03T08:59:38.075Z,1015.58
2018-08-03T09:00:37.990Z,1015.58
2018-08-03T09:01:37.928Z,1015.61
2018-08-03T09:02:37.863Z,1015.57
2018-08-03T09:03:37.798Z,1015.62
2018-08-03T09:04:37.732Z,1015.61
2018-08-03T09:05:37.669Z,1015.61
2018-08-03T09:06:37.607Z,1015.59
2018-08-03T09:07:37.608Z,1015.60
2018-08-03T09:08:37.478Z,1015.58
2018-08-03T09:09:37.413Z,1015.60
2018-08-03T09:10:37.351Z,1015.59
2018-08-03T09:11:37.288Z,1015.63
2018-08-03T09:12:37.230Z,1015.61
2018-08-03T09:13:37.158Z,1015.58
2018-08-03T09:14:37.095Z,1015.58
2018-08-03T09:15:37.033Z,1015.61
2018-08-03T09:16:36.969Z,1015.56
2018-08-03T09:17:36.904Z,1015.57
2018-08-03T09:18:36.865Z,1015.58
2018-08-03T09:19:36.803Z,1015.56
2018-08-03T09:20:36.718Z,1015.54
2018-08-03T09:21:36.660Z,1015.59
2018-08-03T09:22:36.593Z,1015.59
2018-08-03T09:23:36.541Z,1015.58
2018-08-03T09:24:36.487Z,1015.57
2018-08-03T09:25:36.411Z,1015.59
2018-08-03T09:26:36.352Z,1015.60
2018-08-03T09:27:36.291Z,1015.57
2018-08-03T09:28:36.230Z,1015.55
2018-08-03T09:29:36.169Z,1015.53
2018-08-03T09:30:36.109Z,1015.55
2018-08-03T09:31:36.049Z,1015.52
2018-08-03T09:32:35.987Z,1015.51
2018-08-03T09:33:35.930Z,1015.56
2018-08-03T09:34:35.873Z,1015.52
2018-08-03T09:35:35.812Z,1015.56
2018-08-03T09:36:35.798Z,1015.53
2018-08-03T09:37:35.693Z,1015.53
2018-08-03T09:38:35.633Z,1015.59
2018-08-03T09:39:35.577Z,1015.49
2018-08-03T09:40:35.513Z,1015.52
2018-08-03T09:41:35.458Z,1015.53
2018-08-03T09:42:35.399Z,1015.52
2018-08-03T09:43:35.344Z,1015.50
2018-08-03T09:44:35.282Z,1015.52
2018-08-03T09:45:35.226Z,1015.48
2018-08-03T09:46:35.170Z,1015.51
2018-08-03T09:47:35.117Z,1015.47
2018-08-03T09:48:35.060Z,1015.42
2018-08-03T09:49:35.007Z,1015.44
2018-08-03T09:50:34.948Z,1015.42
2018-08-03T09:51:34.891Z,1015.42
2018-08-03T09:52:34.838Z,1015.42
2018-08-03T09:53:34.779Z,1015.39
2018-08-03T09:54:34.737Z,1015.38
2018-08-03T09:55:34.669Z,1015.35
2018-08-03T09:56:34.617Z,1015.34
2018-08-03T09:57:34.564Z,1015.35
2018-08-03T09:58:34.508Z,1015.33
2018-08-03T09:59:34.453Z,1015.33
2018-08-03T10:00:34.398Z,1015.32
2018-08-03T10:01:34.349Z,1015.34
2018-08-03T10:02:34.299Z,1015.35
2018-08-03T10:03:34.246Z,1015.31
2018-08-03T10:04:34.220Z,1015.28
2018-08-03T10:05:34.137Z,1015.26
2018-08-03T10:06:34.082Z,1015.27
2018-08-03T10:07:34.026Z,1015.26
2018-08-03T10:08:33.977Z,1015.23
2018-08-03T10:09:33.925Z,1015.18
2018-08-03T10:10:33.873Z,1015.16
2018-08-03T10:11:33.816Z,1015.07
2018-08-03T10:12:33.766Z,1015.12
2018-08-03T10:13:33.712Z,1015.10
2018-08-03T10:14:33.660Z,1015.05
2018-08-03T10:15:33.644Z,1015.03
2018-08-03T10:16:33.558Z,1015.08
2018-08-03T10:17:33.507Z,1015.03
2018-08-03T10:18:33.453Z,1015.03
2018-08-03T10:19:33.402Z,1015.00
2018-08-03T10:20:33.348Z,1015.01
2018-08-03T10:21:33.295Z,1015.00
2018-08-03T10:22:33.305Z,1014.99
2018-08-03T10:23:33.203Z,1014.99
2018-08-03T10:24:33.143Z,1015.00
2018-08-03T10:25:33.091Z,1015.02
2018-08-03T10:26:33.044Z,1014.96
2018-08-03T10:27:32.988Z,1014.96
2018-08-03T10:28:32.941Z,1014.99
2018-08-03T10:29:32.942Z,1014.94
2018-08-03T10:30:32.841Z,1014.97
2018-08-03T10:31:32.788Z,1014.99
2018-08-03T10:32:32.732Z,1014.96
2018-08-03T10:33:32.688Z,1015.00
2018-08-03T10:34:32.632Z,1014.96
2018-08-03T10:35:32.581Z,1014.95
2018-08-03T10:36:32.529Z,1014.94
2018-08-03T10:37:32.479Z,1014.84
2018-08-03T10:38:32.428Z,1014.84
2018-08-03T10:39:32.378Z,1014.86
2018-08-03T10:40:32.326Z,1014.85
2018-08-03T10:41:32.284Z,1014.84
2018-08-03T10:42:32.224Z,1014.74
2018-08-03T10:43:32.175Z,1014.72
2018-08-03T10:44:32.135Z,1014.76
2018-08-03T10:45:32.073Z,1014.77
2018-08-03T10:46:32.018Z,1014.74
2018-08-03T10:47:31.965Z,1014.72
2018-08-03T10:48:31.915Z,1014.70
2018-08-03T10:49:31.861Z,1014.65
2018-08-03T10:50:31.809Z,1014.65
2018-08-03T10:51:31.795Z,1014.64
2018-08-03T10:52:31.698Z,1014.65
2018-08-03T10:53:31.639Z,1014.60
2018-08-03T10:54:31.638Z,1014.58
2018-08-03T10:55:31.529Z,1014.60
2018-08-03T10:56:31.473Z,1014.56
2018-08-03T10:57:31.421Z,1014.54
2018-08-03T10:58:31.360Z,1014.53
2018-08-03T10:59:31.303Z,1014.54
2018-08-03T11:00:31.252Z,1014.52
2018-08-03T11:01:31.306Z,1014.53
2018-08-03T11:02:31.136Z,1014.48
2018-08-03T11:03:31.077Z,1014.47
2018-08-03T11:04:31.019Z,1014.47
2018-08-03T11:05:30.969Z,1014.48
2018-08-03T11:06:30.905Z,1014.48
2018-08-03T11:07:30.876Z,1014.49
2018-08-03T11:08:30.795Z,1014.49
2018-08-03T11:09:30.733Z,1014.52
2018-08-03T11:10:30.672Z,1014.48
2018-08-03T11:11:30.614Z,1014.52
2018-08-03T11:12:30.552Z,1014.45
2018-08-03T11:13:30.533Z,1014.50
2018-08-03T11:14:30.436Z,1014.44
2018-08-03T11:15:30.380Z,1014.48
2018-08-03T11:16:30.360Z,1014.47
2018-08-03T11:17:30.260Z,1014.46
2018-08-03T11:18:30.199Z,1014.51
2018-08-03T11:19:30.141Z,1014.55
2018-08-03T11:20:30.082Z,1014.46
2018-08-03T11:21:30.028Z,1014.47
2018-08-03T11:22:29.964Z,1014.45
2018-08-03T11:23:29.906Z,1014.41
2018-08-03T11:24:29.847Z,1014.51
2018-08-03T11:25:29.787Z,1014.59
2018-08-03T11:26:29.733Z,1014.51
2018-08-03T11:27:29.671Z,1014.54
2018-08-03T11:28:29.608Z,1014.43
2018-08-03T11:29:29.547Z,1014.44
2018-08-03T11:30:29.494Z,1014.42
2018-08-03T11:31:29.433Z,1014.43
2018-08-03T11:32:29.368Z,1014.43
2018-08-03T11:33:29.319Z,1014.41
2018-08-03T11:34:29.270Z,1014.42
2018-08-03T11:35:29.198Z,1014.45
2018-08-03T11:36:29.139Z,1014.34
2018-08-03T11:37:29.092Z,1014.32
2018-08-03T11:38:29.024Z,1014.36
2018-08-03T11:39:28.969Z,1014.28
2018-08-03T11:40:28.909Z,1014.29
2018-08-03T11:41:28.850Z,1014.26
2018-08-03T11:42:28.873Z,1014.22
2018-08-03T11:43:28.730Z,1014.25
2018-08-03T11:44:28.681Z,1014.25
2018-08-03T11:45:28.621Z,1014.23
2018-08-03T11:46:28.562Z,1014.22
2018-08-03T11:47:28.500Z,1014.17
2018-08-03T11:48:28.498Z,1014.15
2018-08-03T11:49:28.395Z,1014.16
2018-08-03T11:50:28.326Z,1014.14
2018-08-03T11:51:28.268Z,1014.15
2018-08-03T11:52:28.217Z,1014.16
2018-08-03T11:53:28.153Z,1014.15
2018-08-03T11:54:28.082Z,1014.17
2018-08-03T11:55:28.032Z,1014.12
2018-08-03T11:56:27.970Z,1014.15
2018-08-03T11:57:27.912Z,1014.13
2018-08-03T11:58:27.856Z,1014.10
2018-08-03T11:59:27.802Z,1014.08
2018-08-03T12:00:27.726Z,1014.05
2018-08-03T12:01:27.680Z,1014.01
2018-08-03T12:02:27.620Z,1014.03
2018-08-03T12:03:27.557Z,1014.00
2018-08-03T12:04:27.496Z,1013.96